sensor_id;sensor_type;location;lat;lon;timestamp;P1;durP1;ratioP1;P2;durP2;ratioP2
4597;SDS011;62772;48.646;8.906;2023-12-29T00:03:07;6.50;;;4.47;;
4597;SDS011;62772;48.646;8.906;2023-12-29T00:08:08;7.00;;;4.67;;
4597;SDS011;62772;48.646;8.906;2023-12-29T00:13:08;9.83;;;6.20;;
4597;SDS011;62772;48.646;8.906;2023-12-29T00:18:09;8.73;;;4.23;;
4597;SDS011;62772;48.646;8.906;2023-12-29T00:23:10;8.27;;;4.80;;
4597;SDS011;62772;48.646;8.906;2023-12-29T00:28:10;8.97;;;5.63;;
4597;SDS011;62772;48.646;8.906;2023-12-29T00:33:11;7.30;;;5.10;;
4597;SDS011;62772;48.646;8.906;2023-12-29T00:38:11;6.70;;;4.83;;
4597;SDS011;62772;48.646;8.906;2023-12-29T00:43:12;10.20;;;5.80;;
4597;SDS011;62772;48.646;8.906;2023-12-29T00:48:12;7.70;;;5.63;;
4597;SDS011;62772;48.646;8.906;2023-12-29T00:53:12;8.77;;;5.57;;
4597;SDS011;62772;48.646;8.906;2023-12-29T00:58:13;9.77;;;5.80;;
4597;SDS011;62772;48.646;8.906;2023-12-29T01:03:13;8.90;;;5.97;;
4597;SDS011;62772;48.646;8.906;2023-12-29T01:08:14;9.40;;;6.40;;
4597;SDS011;62772;48.646;8.906;2023-12-29T01:13:14;8.70;;;6.17;;
4597;SDS011;62772;48.646;8.906;2023-12-29T01:18:15;8.87;;;5.50;;
4597;SDS011;62772;48.646;8.906;2023-12-29T01:23:15;9.50;;;6.10;;
4597;SDS011;62772;48.646;8.906;2023-12-29T01:28:17;7.80;;;5.03;;
4597;SDS011;62772;48.646;8.906;2023-12-29T01:33:18;8.63;;;5.47;;
4597;SDS011;62772;48.646;8.906;2023-12-29T01:38:21;9.20;;;6.23;;
4597;SDS011;62772;48.646;8.906;2023-12-29T01:43:21;10.63;;;5.77;;
4597;SDS011;62772;48.646;8.906;2023-12-29T01:48:22;12.97;;;5.53;;
4597;SDS011;62772;48.646;8.906;2023-12-29T01:53:24;10.33;;;6.10;;
4597;SDS011;62772;48.646;8.906;2023-12-29T01:58:25;9.00;;;6.00;;
4597;SDS011;62772;48.646;8.906;2023-12-29T02:03:26;9.03;;;5.70;;
4597;SDS011;62772;48.646;8.906;2023-12-29T02:08:26;8.50;;;5.77;;
4597;SDS011;62772;48.646;8.906;2023-12-29T02:13:27;8.13;;;5.90;;
4597;SDS011;62772;48.646;8.906;2023-12-29T02:18:27;10.60;;;6.30;;
4597;SDS011;62772;48.646;8.906;2023-12-29T02:23:31;8.50;;;5.57;;
4597;SDS011;62772;48.646;8.906;2023-12-29T02:28:31;9.20;;;6.33;;
4597;SDS011;62772;48.646;8.906;2023-12-29T02:33:36;8.33;;;6.47;;
4597;SDS011;62772;48.646;8.906;2023-12-29T02:38:40;9.23;;;6.20;;
4597;SDS011;62772;48.646;8.906;2023-12-29T02:43:41;8.93;;;6.50;;
4597;SDS011;62772;48.646;8.906;2023-12-29T02:48:41;13.87;;;7.10;;
4597;SDS011;62772;48.646;8.906;2023-12-29T02:53:42;11.70;;;6.73;;
4597;SDS011;62772;48.646;8.906;2023-12-29T02:58:42;8.70;;;6.20;;
4597;SDS011;62772;48.646;8.906;2023-12-29T03:03:43;9.03;;;6.60;;
4597;SDS011;62772;48.646;8.906;2023-12-29T03:08:43;9.80;;;6.40;;
4597;SDS011;62772;48.646;8.906;2023-12-29T03:13:44;8.30;;;6.10;;
4597;SDS011;62772;48.646;8.906;2023-12-29T03:18:44;11.13;;;6.87;;
4597;SDS011;62772;48.646;8.906;2023-12-29T03:23:45;9.80;;;6.87;;
4597;SDS011;62772;48.646;8.906;2023-12-29T03:28:45;10.17;;;6.30;;
4597;SDS011;62772;48.646;8.906;2023-12-29T03:33:46;9.27;;;6.60;;
4597;SDS011;62772;48.646;8.906;2023-12-29T03:38:46;11.50;;;7.43;;
4597;SDS011;62772;48.646;8.906;2023-12-29T03:43:47;9.20;;;6.47;;
4597;SDS011;62772;48.646;8.906;2023-12-29T03:48:47;11.03;;;6.70;;
4597;SDS011;62772;48.646;8.906;2023-12-29T03:53:48;11.83;;;6.83;;
4597;SDS011;62772;48.646;8.906;2023-12-29T03:58:49;9.70;;;6.33;;
4597;SDS011;62772;48.646;8.906;2023-12-29T04:03:49;9.90;;;6.90;;
4597;SDS011;62772;48.646;8.906;2023-12-29T04:08:50;10.43;;;6.60;;
4597;SDS011;62772;48.646;8.906;2023-12-29T04:13:50;8.83;;;5.70;;
4597;SDS011;62772;48.646;8.906;2023-12-29T04:18:51;10.23;;;6.70;;
4597;SDS011;62772;48.646;8.906;2023-12-29T04:23:51;11.10;;;7.10;;
4597;SDS011;62772;48.646;8.906;2023-12-29T04:28:51;8.97;;;6.87;;
4597;SDS011;62772;48.646;8.906;2023-12-29T04:33:52;11.97;;;7.20;;
4597;SDS011;62772;48.646;8.906;2023-12-29T04:38:53;11.80;;;7.37;;
4597;SDS011;62772;48.646;8.906;2023-12-29T04:43:55;9.93;;;7.17;;
4597;SDS011;62772;48.646;8.906;2023-12-29T04:48:56;9.50;;;7.07;;
4597;SDS011;62772;48.646;8.906;2023-12-29T04:53:56;8.43;;;6.40;;
4597;SDS011;62772;48.646;8.906;2023-12-29T04:58:57;10.27;;;6.70;;
4597;SDS011;62772;48.646;8.906;2023-12-29T05:03:57;8.10;;;6.27;;
4597;SDS011;62772;48.646;8.906;2023-12-29T05:08:58;9.17;;;6.53;;
4597;SDS011;62772;48.646;8.906;2023-12-29T05:13:58;9.40;;;6.20;;
4597;SDS011;62772;48.646;8.906;2023-12-29T05:18:59;9.57;;;6.40;;
4597;SDS011;62772;48.646;8.906;2023-12-29T05:23:59;8.43;;;6.00;;
4597;SDS011;62772;48.646;8.906;2023-12-29T05:29:00;9.10;;;6.43;;
4597;SDS011;62772;48.646;8.906;2023-12-29T05:34:00;7.37;;;5.97;;
4597;SDS011;62772;48.646;8.906;2023-12-29T05:39:01;10.20;;;6.17;;
4597;SDS011;62772;48.646;8.906;2023-12-29T05:44:01;16.10;;;8.10;;
4597;SDS011;62772;48.646;8.906;2023-12-29T05:49:02;9.67;;;7.03;;
4597;SDS011;62772;48.646;8.906;2023-12-29T05:54:02;13.17;;;7.97;;
4597;SDS011;62772;48.646;8.906;2023-12-29T05:59:03;10.07;;;6.73;;
4597;SDS011;62772;48.646;8.906;2023-12-29T06:04:04;9.37;;;6.90;;
4597;SDS011;62772;48.646;8.906;2023-12-29T06:09:04;12.63;;;6.37;;
4597;SDS011;62772;48.646;8.906;2023-12-29T06:14:04;9.13;;;5.83;;
4597;SDS011;62772;48.646;8.906;2023-12-29T06:19:05;9.33;;;6.60;;
4597;SDS011;62772;48.646;8.906;2023-12-29T06:24:05;12.53;;;7.50;;
4597;SDS011;62772;48.646;8.906;2023-12-29T06:29:06;12.37;;;7.13;;
4597;SDS011;62772;48.646;8.906;2023-12-29T06:34:06;8.27;;;6.30;;
4597;SDS011;62772;48.646;8.906;2023-12-29T06:39:06;11.37;;;6.77;;
4597;SDS011;62772;48.646;8.906;2023-12-29T06:44:07;11.93;;;7.63;;
4597;SDS011;62772;48.646;8.906;2023-12-29T06:49:08;9.43;;;6.43;;
4597;SDS011;62772;48.646;8.906;2023-12-29T06:54:09;13.10;;;7.60;;
4597;SDS011;62772;48.646;8.906;2023-12-29T06:59:09;13.60;;;7.40;;
4597;SDS011;62772;48.646;8.906;2023-12-29T07:04:09;15.97;;;9.40;;
4597;SDS011;62772;48.646;8.906;2023-12-29T07:09:10;12.83;;;7.53;;
4597;SDS011;62772;48.646;8.906;2023-12-29T07:14:10;10.17;;;6.00;;
4597;SDS011;62772;48.646;8.906;2023-12-29T07:19:11;11.80;;;7.40;;
4597;SDS011;62772;48.646;8.906;2023-12-29T07:24:11;11.07;;;7.77;;
4597;SDS011;62772;48.646;8.906;2023-12-29T07:29:12;11.03;;;6.80;;
4597;SDS011;62772;48.646;8.906;2023-12-29T07:34:13;9.87;;;6.70;;
4597;SDS011;62772;48.646;8.906;2023-12-29T07:39:13;9.57;;;6.80;;
4597;SDS011;62772;48.646;8.906;2023-12-29T07:44:14;10.53;;;6.93;;
4597;SDS011;62772;48.646;8.906;2023-12-29T07:49:14;10.40;;;7.60;;
4597;SDS011;62772;48.646;8.906;2023-12-29T07:54:15;11.90;;;7.63;;
4597;SDS011;62772;48.646;8.906;2023-12-29T07:59:16;14.40;;;8.83;;
4597;SDS011;62772;48.646;8.906;2023-12-29T08:04:16;12.67;;;7.80;;
4597;SDS011;62772;48.646;8.906;2023-12-29T08:09:16;11.87;;;7.40;;
4597;SDS011;62772;48.646;8.906;2023-12-29T08:14:17;10.43;;;6.93;;
4597;SDS011;62772;48.646;8.906;2023-12-29T08:19:17;10.97;;;6.93;;
4597;SDS011;62772;48.646;8.906;2023-12-29T08:24:18;9.93;;;7.27;;
4597;SDS011;62772;48.646;8.906;2023-12-29T08:29:20;10.00;;;6.97;;
4597;SDS011;62772;48.646;8.906;2023-12-29T08:34:21;9.87;;;6.97;;
4597;SDS011;62772;48.646;8.906;2023-12-29T08:39:21;10.10;;;6.47;;
4597;SDS011;62772;48.646;8.906;2023-12-29T08:44:22;9.97;;;6.37;;
4597;SDS011;62772;48.646;8.906;2023-12-29T08:49:23;8.83;;;6.10;;
4597;SDS011;62772;48.646;8.906;2023-12-29T08:54:23;8.73;;;6.50;;
4597;SDS011;62772;48.646;8.906;2023-12-29T08:59:24;8.17;;;5.67;;
4597;SDS011;62772;48.646;8.906;2023-12-29T09:04:24;7.43;;;5.33;;
4597;SDS011;62772;48.646;8.906;2023-12-29T09:09:25;7.87;;;5.20;;
4597;SDS011;62772;48.646;8.906;2023-12-29T09:14:25;8.17;;;4.97;;
4597;SDS011;62772;48.646;8.906;2023-12-29T09:19:26;7.50;;;5.27;;
4597;SDS011;62772;48.646;8.906;2023-12-29T09:24:26;6.83;;;5.10;;
4597;SDS011;62772;48.646;8.906;2023-12-29T09:29:27;6.23;;;4.80;;
4597;SDS011;62772;48.646;8.906;2023-12-29T09:34:27;6.90;;;5.00;;
4597;SDS011;62772;48.646;8.906;2023-12-29T09:39:28;8.10;;;6.17;;
4597;SDS011;62772;48.646;8.906;2023-12-29T09:44:28;7.30;;;4.83;;
4597;SDS011;62772;48.646;8.906;2023-12-29T09:49:35;8.70;;;6.17;;
4597;SDS011;62772;48.646;8.906;2023-12-29T09:54:39;11.40;;;6.50;;
4597;SDS011;62772;48.646;8.906;2023-12-29T09:59:40;9.67;;;6.50;;
4597;SDS011;62772;48.646;8.906;2023-12-29T10:04:41;11.00;;;6.73;;
4597;SDS011;62772;48.646;8.906;2023-12-29T10:09:42;7.23;;;5.33;;
4597;SDS011;62772;48.646;8.906;2023-12-29T10:25:45;8.30;;;5.70;;
4597;SDS011;62772;48.646;8.906;2023-12-29T10:30:47;10.00;;;5.83;;
4597;SDS011;62772;48.646;8.906;2023-12-29T10:36:00;7.90;;;5.37;;
4597;SDS011;62772;48.646;8.906;2023-12-29T10:41:10;9.70;;;6.00;;
4597;SDS011;62772;48.646;8.906;2023-12-29T10:46:13;9.70;;;5.43;;
4597;SDS011;62772;48.646;8.906;2023-12-29T10:51:13;5.40;;;3.60;;
4597;SDS011;62772;48.646;8.906;2023-12-29T10:56:17;5.47;;;3.87;;
4597;SDS011;62772;48.646;8.906;2023-12-29T11:01:22;6.57;;;3.60;;
4597;SDS011;62772;48.646;8.906;2023-12-29T11:06:23;5.43;;;4.00;;
4597;SDS011;62772;48.646;8.906;2023-12-29T11:11:24;4.43;;;3.07;;
4597;SDS011;62772;48.646;8.906;2023-12-29T11:16:25;3.87;;;2.70;;
4597;SDS011;62772;48.646;8.906;2023-12-29T11:21:26;5.50;;;3.23;;
4597;SDS011;62772;48.646;8.906;2023-12-29T11:26:28;4.93;;;2.83;;
4597;SDS011;62772;48.646;8.906;2023-12-29T11:31:29;4.57;;;2.90;;
4597;SDS011;62772;48.646;8.906;2023-12-29T11:36:30;4.30;;;2.73;;
4597;SDS011;62772;48.646;8.906;2023-12-29T11:41:40;3.90;;;3.00;;
4597;SDS011;62772;48.646;8.906;2023-12-29T11:46:48;5.10;;;2.73;;
4597;SDS011;62772;48.646;8.906;2023-12-29T11:51:49;4.60;;;2.70;;
4597;SDS011;62772;48.646;8.906;2023-12-29T11:56:50;5.13;;;2.80;;
4597;SDS011;62772;48.646;8.906;2023-12-29T12:01:54;4.73;;;2.80;;
4597;SDS011;62772;48.646;8.906;2023-12-29T12:06:55;6.80;;;3.67;;
4597;SDS011;62772;48.646;8.906;2023-12-29T12:11:56;9.33;;;3.27;;
4597;SDS011;62772;48.646;8.906;2023-12-29T12:16:56;4.80;;;2.60;;
4597;SDS011;62772;48.646;8.906;2023-12-29T12:21:57;3.27;;;2.33;;
4597;SDS011;62772;48.646;8.906;2023-12-29T12:26:59;4.33;;;2.50;;
4597;SDS011;62772;48.646;8.906;2023-12-29T12:32:02;3.20;;;2.27;;
4597;SDS011;62772;48.646;8.906;2023-12-29T12:37:03;3.50;;;2.23;;
4597;SDS011;62772;48.646;8.906;2023-12-29T12:42:04;4.23;;;2.63;;
4597;SDS011;62772;48.646;8.906;2023-12-29T12:47:06;4.40;;;2.60;;
4597;SDS011;62772;48.646;8.906;2023-12-29T12:52:14;4.27;;;2.70;;
4597;SDS011;62772;48.646;8.906;2023-12-29T12:57:17;4.23;;;2.93;;
4597;SDS011;62772;48.646;8.906;2023-12-29T13:02:19;3.47;;;2.47;;
4597;SDS011;62772;48.646;8.906;2023-12-29T13:07:21;4.23;;;2.80;;
4597;SDS011;62772;48.646;8.906;2023-12-29T13:12:22;3.40;;;2.40;;
4597;SDS011;62772;48.646;8.906;2023-12-29T13:17:22;3.20;;;2.30;;
4597;SDS011;62772;48.646;8.906;2023-12-29T13:22:23;4.60;;;3.00;;
4597;SDS011;62772;48.646;8.906;2023-12-29T13:27:24;3.97;;;2.87;;
4597;SDS011;62772;48.646;8.906;2023-12-29T13:32:24;4.57;;;2.73;;
4597;SDS011;62772;48.646;8.906;2023-12-29T13:37:36;4.33;;;2.93;;
4597;SDS011;62772;48.646;8.906;2023-12-29T13:42:46;5.97;;;2.70;;
4597;SDS011;62772;48.646;8.906;2023-12-29T13:47:48;4.03;;;2.50;;
4597;SDS011;62772;48.646;8.906;2023-12-29T13:52:49;4.90;;;3.27;;
4597;SDS011;62772;48.646;8.906;2023-12-29T13:57:50;4.67;;;2.90;;
4597;SDS011;62772;48.646;8.906;2023-12-29T14:13:04;3.83;;;2.57;;
4597;SDS011;62772;48.646;8.906;2023-12-29T14:23:13;5.63;;;3.10;;
4597;SDS011;62772;48.646;8.906;2023-12-29T14:28:17;4.20;;;2.70;;
4597;SDS011;62772;48.646;8.906;2023-12-29T14:33:19;4.37;;;2.70;;
4597;SDS011;62772;48.646;8.906;2023-12-29T14:38:20;4.03;;;2.20;;
4597;SDS011;62772;48.646;8.906;2023-12-29T14:43:20;4.30;;;2.70;;
4597;SDS011;62772;48.646;8.906;2023-12-29T14:48:21;4.63;;;2.83;;
4597;SDS011;62772;48.646;8.906;2023-12-29T14:53:24;4.37;;;2.80;;
4597;SDS011;62772;48.646;8.906;2023-12-29T14:58:26;3.80;;;2.70;;
4597;SDS011;62772;48.646;8.906;2023-12-29T15:03:27;4.30;;;3.07;;
4597;SDS011;62772;48.646;8.906;2023-12-29T15:08:28;5.83;;;3.00;;
4597;SDS011;62772;48.646;8.906;2023-12-29T15:13:34;7.87;;;3.57;;
4597;SDS011;62772;48.646;8.906;2023-12-29T15:18:35;10.70;;;6.13;;
4597;SDS011;62772;48.646;8.906;2023-12-29T15:23:35;6.60;;;3.93;;
4597;SDS011;62772;48.646;8.906;2023-12-29T15:28:36;6.00;;;3.60;;
4597;SDS011;62772;48.646;8.906;2023-12-29T15:33:37;9.70;;;3.20;;
4597;SDS011;62772;48.646;8.906;2023-12-29T15:38:38;9.13;;;4.60;;
4597;SDS011;62772;48.646;8.906;2023-12-29T15:43:39;4.70;;;3.30;;
4597;SDS011;62772;48.646;8.906;2023-12-29T15:48:40;4.80;;;3.60;;
4597;SDS011;62772;48.646;8.906;2023-12-29T15:53:40;6.20;;;3.63;;
4597;SDS011;62772;48.646;8.906;2023-12-29T15:58:41;6.80;;;4.27;;
4597;SDS011;62772;48.646;8.906;2023-12-29T16:03:42;12.60;;;6.57;;
4597;SDS011;62772;48.646;8.906;2023-12-29T16:08:42;13.43;;;6.60;;
4597;SDS011;62772;48.646;8.906;2023-12-29T16:13:42;14.90;;;8.20;;
4597;SDS011;62772;48.646;8.906;2023-12-29T16:18:43;10.00;;;5.73;;
4597;SDS011;62772;48.646;8.906;2023-12-29T16:23:44;7.90;;;4.80;;
4597;SDS011;62772;48.646;8.906;2023-12-29T16:28:45;9.53;;;5.73;;
4597;SDS011;62772;48.646;8.906;2023-12-29T16:33:46;7.67;;;5.27;;
4597;SDS011;62772;48.646;8.906;2023-12-29T16:38:47;10.00;;;6.03;;
4597;SDS011;62772;48.646;8.906;2023-12-29T16:43:49;9.13;;;5.60;;
4597;SDS011;62772;48.646;8.906;2023-12-29T16:48:49;12.20;;;7.23;;
4597;SDS011;62772;48.646;8.906;2023-12-29T16:53:50;47.37;;;34.60;;
4597;SDS011;62772;48.646;8.906;2023-12-29T16:58:50;17.27;;;12.07;;
4597;SDS011;62772;48.646;8.906;2023-12-29T17:03:51;21.17;;;11.40;;
4597;SDS011;62772;48.646;8.906;2023-12-29T17:08:51;29.33;;;13.30;;
4597;SDS011;62772;48.646;8.906;2023-12-29T17:13:52;15.60;;;9.80;;
4597;SDS011;62772;48.646;8.906;2023-12-29T17:18:52;14.23;;;8.47;;
4597;SDS011;62772;48.646;8.906;2023-12-29T17:23:54;23.53;;;13.90;;
4597;SDS011;62772;48.646;8.906;2023-12-29T17:28:54;22.03;;;13.97;;
4597;SDS011;62772;48.646;8.906;2023-12-29T17:33:55;13.20;;;9.80;;
4597;SDS011;62772;48.646;8.906;2023-12-29T17:38:55;14.53;;;9.30;;
4597;SDS011;62772;48.646;8.906;2023-12-29T17:43:56;14.10;;;8.70;;
4597;SDS011;62772;48.646;8.906;2023-12-29T17:48:57;10.93;;;7.10;;
4597;SDS011;62772;48.646;8.906;2023-12-29T17:53:57;13.53;;;7.97;;
4597;SDS011;62772;48.646;8.906;2023-12-29T17:58:59;11.73;;;7.47;;
4597;SDS011;62772;48.646;8.906;2023-12-29T18:03:59;11.57;;;7.90;;
4597;SDS011;62772;48.646;8.906;2023-12-29T18:09:00;12.07;;;8.60;;
4597;SDS011;62772;48.646;8.906;2023-12-29T18:14:00;12.63;;;7.90;;
4597;SDS011;62772;48.646;8.906;2023-12-29T18:19:01;15.60;;;8.30;;
4597;SDS011;62772;48.646;8.906;2023-12-29T18:24:02;20.10;;;9.53;;
4597;SDS011;62772;48.646;8.906;2023-12-29T18:29:02;14.70;;;9.00;;
4597;SDS011;62772;48.646;8.906;2023-12-29T18:34:02;11.43;;;6.07;;
4597;SDS011;62772;48.646;8.906;2023-12-29T18:39:03;7.97;;;5.60;;
4597;SDS011;62772;48.646;8.906;2023-12-29T18:44:04;10.20;;;6.77;;
4597;SDS011;62772;48.646;8.906;2023-12-29T18:49:04;11.00;;;7.77;;
4597;SDS011;62772;48.646;8.906;2023-12-29T18:54:06;9.53;;;6.30;;
4597;SDS011;62772;48.646;8.906;2023-12-29T18:59:06;8.80;;;6.10;;
4597;SDS011;62772;48.646;8.906;2023-12-29T19:04:13;8.80;;;6.10;;
4597;SDS011;62772;48.646;8.906;2023-12-29T19:09:14;8.30;;;5.70;;
4597;SDS011;62772;48.646;8.906;2023-12-29T19:14:14;9.90;;;6.10;;
4597;SDS011;62772;48.646;8.906;2023-12-29T19:19:16;8.87;;;6.00;;
4597;SDS011;62772;48.646;8.906;2023-12-29T19:24:16;10.23;;;5.93;;
4597;SDS011;62772;48.646;8.906;2023-12-29T19:29:17;7.70;;;5.00;;
4597;SDS011;62772;48.646;8.906;2023-12-29T19:34:17;6.63;;;4.87;;
4597;SDS011;62772;48.646;8.906;2023-12-29T19:39:19;6.27;;;4.03;;
4597;SDS011;62772;48.646;8.906;2023-12-29T19:44:19;6.47;;;3.73;;
4597;SDS011;62772;48.646;8.906;2023-12-29T19:49:20;4.83;;;3.23;;
4597;SDS011;62772;48.646;8.906;2023-12-29T19:54:20;6.30;;;4.10;;
4597;SDS011;62772;48.646;8.906;2023-12-29T19:59:21;9.70;;;3.47;;
4597;SDS011;62772;48.646;8.906;2023-12-29T20:04:21;7.87;;;4.20;;
4597;SDS011;62772;48.646;8.906;2023-12-29T20:09:22;49.23;;;29.60;;
4597;SDS011;62772;48.646;8.906;2023-12-29T20:14:22;4.70;;;3.50;;
4597;SDS011;62772;48.646;8.906;2023-12-29T20:19:23;3.67;;;2.70;;
4597;SDS011;62772;48.646;8.906;2023-12-29T20:24:23;4.73;;;3.07;;
4597;SDS011;62772;48.646;8.906;2023-12-29T20:29:24;7.50;;;3.60;;
4597;SDS011;62772;48.646;8.906;2023-12-29T20:34:24;5.50;;;3.60;;
4597;SDS011;62772;48.646;8.906;2023-12-29T20:39:24;6.40;;;4.10;;
4597;SDS011;62772;48.646;8.906;2023-12-29T20:44:25;7.67;;;5.50;;
4597;SDS011;62772;48.646;8.906;2023-12-29T20:49:25;8.37;;;5.63;;
4597;SDS011;62772;48.646;8.906;2023-12-29T20:54:26;6.70;;;4.60;;
4597;SDS011;62772;48.646;8.906;2023-12-29T20:59:26;8.40;;;4.47;;
4597;SDS011;62772;48.646;8.906;2023-12-29T21:04:27;7.63;;;4.23;;
4597;SDS011;62772;48.646;8.906;2023-12-29T21:09:27;6.03;;;4.07;;
4597;SDS011;62772;48.646;8.906;2023-12-29T21:14:27;6.57;;;4.10;;
4597;SDS011;62772;48.646;8.906;2023-12-29T21:19:31;7.57;;;4.70;;
4597;SDS011;62772;48.646;8.906;2023-12-29T21:24:31;11.63;;;5.83;;
4597;SDS011;62772;48.646;8.906;2023-12-29T21:29:32;8.93;;;6.03;;
4597;SDS011;62772;48.646;8.906;2023-12-29T21:34:32;11.70;;;5.77;;
4597;SDS011;62772;48.646;8.906;2023-12-29T21:39:33;12.80;;;7.30;;
4597;SDS011;62772;48.646;8.906;2023-12-29T21:44:34;14.87;;;7.23;;
4597;SDS011;62772;48.646;8.906;2023-12-29T21:49:34;28.20;;;11.67;;
4597;SDS011;62772;48.646;8.906;2023-12-29T21:54:38;19.10;;;9.20;;
4597;SDS011;62772;48.646;8.906;2023-12-29T21:59:42;14.20;;;7.73;;
4597;SDS011;62772;48.646;8.906;2023-12-29T22:04:43;18.27;;;7.50;;
4597;SDS011;62772;48.646;8.906;2023-12-29T22:09:43;30.27;;;15.37;;
4597;SDS011;62772;48.646;8.906;2023-12-29T22:14:44;58.80;;;31.13;;
4597;SDS011;62772;48.646;8.906;2023-12-29T22:19:44;59.90;;;32.60;;
4597;SDS011;62772;48.646;8.906;2023-12-29T22:24:45;33.03;;;17.70;;
4597;SDS011;62772;48.646;8.906;2023-12-29T22:29:46;15.10;;;8.80;;
4597;SDS011;62772;48.646;8.906;2023-12-29T22:34:46;14.03;;;8.27;;
4597;SDS011;62772;48.646;8.906;2023-12-29T22:39:47;14.63;;;8.80;;
4597;SDS011;62772;48.646;8.906;2023-12-29T22:44:47;16.00;;;7.50;;
4597;SDS011;62772;48.646;8.906;2023-12-29T22:49:48;12.20;;;6.20;;
4597;SDS011;62772;48.646;8.906;2023-12-29T22:54:48;8.63;;;5.57;;
4597;SDS011;62772;48.646;8.906;2023-12-29T22:59:48;7.03;;;4.63;;
4597;SDS011;62772;48.646;8.906;2023-12-29T23:04:49;18.03;;;10.30;;
4597;SDS011;62772;48.646;8.906;2023-12-29T23:09:51;15.03;;;8.97;;
4597;SDS011;62772;48.646;8.906;2023-12-29T23:14:51;18.87;;;11.77;;
4597;SDS011;62772;48.646;8.906;2023-12-29T23:19:52;13.83;;;8.47;;
4597;SDS011;62772;48.646;8.906;2023-12-29T23:24:52;10.37;;;6.20;;
4597;SDS011;62772;48.646;8.906;2023-12-29T23:29:53;9.40;;;5.93;;
4597;SDS011;62772;48.646;8.906;2023-12-29T23:34:53;7.63;;;5.17;;
4597;SDS011;62772;48.646;8.906;2023-12-29T23:39:53;6.70;;;4.77;;
4597;SDS011;62772;48.646;8.906;2023-12-29T23:44:54;10.03;;;5.40;;
4597;SDS011;62772;48.646;8.906;2023-12-29T23:49:58;7.57;;;5.10;;
4597;SDS011;62772;48.646;8.906;2023-12-29T23:54:58;8.37;;;4.80;;
4597;SDS011;62772;48.646;8.906;2023-12-29T23:59:59;7.53;;;4.70;;
